BIHNBIEG

Guest
Details From BIHN - Hornafjordur
To BIEG - Egilsstadir
Flight Number -
Tags generated
Created
Modified
Stats Distance 63 nm / 117 km
Max Altitude 6,400 ft / 1,951 m
Waypoints 4
Social Downloads 2
Likes 0
Share VATSIM

Download

Looking for another format? Having issues loading an existing format? Contact us
Advertisement - Login to hide

Notes

Basic altitude profile: - Ascent Rate: 2500ft/min - Ascent Speed: 250kts - Cruise Altitude: 35000ft - Cruise Speed: 420kts - Descent Rate: 1500ft/min - Descent Speed: 250kts Options: - Use NATs: yes - Use PACOTS: yes - Use low airways: yes - Use high airways: yes

Route

BIHN BAULA B2 ES BIEG

ID Type Via Altitude Latitude Longitude Leg Dist Tot Dist Heading (true) Name
O BIHN APT - 0 ft / 0 m 64.29568˚ -15.22735˚ - 0 nm - Hornafjordur
BAULA FIX - 4,600 ft / 1,402 m 64.93944˚ -14.69306˚ 41 nm 41 nm 19° / 20° -
ES NDB B2 (AWY-LO) 6,400 ft / 1,951 m 65.23847˚ -14.45203˚ 18 nm 60 nm 19° / 19° EGILSSTADIR NDB
O BIEG APT - 0 ft / 0 m 65.28283˚ -14.40206˚ 2 nm 62 nm 25° / 25° Egilsstadir

Altitude Profile

Advertisement - Login to hide

BIHN

Details ICAO BIHN (HFN)
Name Hornafjordur
Region Iceland
Timezone Atlantic/Reykjavik (UTC+0.0)
Stats Elevation 23 ft / 7 m (AMSL)
Location 64.295683° -15.227349°
Runways 1
Magnetic Variation 10.118° W

METAR

BIHN 241000Z 12010KT 8000 RA BR FEW005 BKN007 OVC012 08/07 Q1013

Decode

TAF

Not found

Departure Runways

ID Width Length Bearing (true) Bearing (mag) Surface Threshold Offset Overrun Length
18 98 ft / 30 m 4,926 ft / 1,501 m 167.21° 177.33° Asphalt 0 ft / 0 m 0 ft / 0 m
36 98 ft / 30 m 4,926 ft / 1,501 m 347.21° 357.33° Asphalt 0 ft / 0 m 0 ft / 0 m

BIEG

Details ICAO BIEG (EGS)
Name Egilsstadir
Region Iceland
Timezone Atlantic/Reykjavik (UTC+0.0)
Stats Elevation 76 ft / 23 m (AMSL)
Location 65.282830° -14.402058°
Runways 1
Magnetic Variation 10.002° W

METAR

BIEG 241000Z 19005KT 9999 -RA FEW007 SCT030 OVC080 07/05 Q1012

Decode

TAF

TAF BIEG 240800Z 2409/2509 01007KT 9999 -RADZ FEW008 BKN020 OVC030 TX11/2415Z TN04/2503Z BECMG 2410/2412 16010KT BECMG 2418/2421 26017G27KT NSW SCT040 BECMG 2503/2506 19013KT

Decode

Destination Runways

ID Width Length Bearing (true) Bearing (mag) Surface Threshold Offset Overrun Length
04 148 ft / 45 m 6,569 ft / 2,002 m 25.32° 35.32° Asphalt 492 ft / 150 m 0 ft / 0 m
22 148 ft / 45 m 6,569 ft / 2,002 m 205.34° 215.34° Asphalt 0 ft / 0 m 197 ft / 60 m

Approach Navaids

Runway Type Ident Frequency Range Bearing (true) Bearing (mag) Slope Elevation
04 Localiser IES 109.30 MHz 18 nm / 33 km 25.26° 35.26° - 76 ft / 23 m (AMSL)
04 Glidescope IES 109.30 MHz 10 nm / 19 km 25.26° 35.26° 3.00° 76 ft / 23 m (AMSL)
04 DME IES 109.30 MHz 18 nm / 33 km - - - 100 ft / 30 m (AMSL)

Popular Alternatives